sensor_id;sensor_type;location;lat;lon;timestamp;pressure;altitude;pressure_sealevel;temperature;humidity
48156;BME280;35568;48.104;11.782;2024-03-02T00:00:27;94365.62;;;6.71;53.36
48156;BME280;35568;48.104;11.782;2024-03-02T00:02:54;94364.87;;;6.99;53.56
48156;BME280;35568;48.104;11.782;2024-03-02T00:05:22;94365.11;;;6.93;53.21
48156;BME280;35568;48.104;11.782;2024-03-02T00:07:54;94363.32;;;7.02;52.91
48156;BME280;35568;48.104;11.782;2024-03-02T00:10:23;94362.59;;;7.20;53.08
48156;BME280;35568;48.104;11.782;2024-03-02T00:12:51;94363.90;;;6.94;53.12
48156;BME280;35568;48.104;11.782;2024-03-02T00:15:41;94360.95;;;6.89;53.32
48156;BME280;35568;48.104;11.782;2024-03-02T00:18:11;94360.21;;;6.58;53.17
48156;BME280;35568;48.104;11.782;2024-03-02T00:20:38;94359.68;;;6.83;53.32
48156;BME280;35568;48.104;11.782;2024-03-02T00:23:07;94358.33;;;7.05;53.34
48156;BME280;35568;48.104;11.782;2024-03-02T00:25:38;94353.97;;;7.05;53.27
48156;BME280;35568;48.104;11.782;2024-03-02T00:28:06;94349.82;;;7.05;53.25
48156;BME280;35568;48.104;11.782;2024-03-02T00:30:51;94346.99;;;6.94;53.29
48156;BME280;35568;48.104;11.782;2024-03-02T00:33:19;94344.48;;;6.58;53.49
48156;BME280;35568;48.104;11.782;2024-03-02T00:35:46;94343.35;;;6.63;53.87
48156;BME280;35568;48.104;11.782;2024-03-02T00:38:14;94344.02;;;6.50;53.86
48156;BME280;35568;48.104;11.782;2024-03-02T00:40:42;94342.73;;;6.88;53.69
48156;BME280;35568;48.104;11.782;2024-03-02T00:43:34;94343.19;;;6.60;53.74
48156;BME280;35568;48.104;11.782;2024-03-02T00:46:06;94338.74;;;6.90;53.55
48156;BME280;35568;48.104;11.782;2024-03-02T00:48:33;94333.95;;;6.71;53.77
48156;BME280;35568;48.104;11.782;2024-03-02T00:51:00;94330.93;;;6.70;54.16
48156;BME280;35568;48.104;11.782;2024-03-02T00:53:28;94328.89;;;6.68;54.23
48156;BME280;35568;48.104;11.782;2024-03-02T00:55:56;94326.90;;;6.97;54.05
48156;BME280;35568;48.104;11.782;2024-03-02T00:58:23;94325.53;;;6.61;54.07
48156;BME280;35568;48.104;11.782;2024-03-02T01:00:49;94326.22;;;6.42;54.25
48156;BME280;35568;48.104;11.782;2024-03-02T01:03:17;94322.73;;;6.55;54.25
48156;BME280;35568;48.104;11.782;2024-03-02T01:05:43;94322.94;;;6.31;54.27
48156;BME280;35568;48.104;11.782;2024-03-02T01:08:11;94321.21;;;6.79;54.59
48156;BME280;35568;48.104;11.782;2024-03-02T01:10:38;94315.96;;;6.55;54.39
48156;BME280;35568;48.104;11.782;2024-03-02T01:13:05;94312.76;;;6.37;54.81
48156;BME280;35568;48.104;11.782;2024-03-02T01:15:33;94309.15;;;6.77;54.48
48156;BME280;35568;48.104;11.782;2024-03-02T01:18:00;94307.42;;;6.71;54.32
48156;BME280;35568;48.104;11.782;2024-03-02T01:20:28;94305.24;;;6.49;54.16
48156;BME280;35568;48.104;11.782;2024-03-02T01:22:54;94303.38;;;6.83;54.03
48156;BME280;35568;48.104;11.782;2024-03-02T01:25:21;94304.42;;;6.78;54.08
48156;BME280;35568;48.104;11.782;2024-03-02T01:27:47;94305.60;;;6.61;54.44
48156;BME280;35568;48.104;11.782;2024-03-02T01:30:14;94307.01;;;6.51;54.28
48156;BME280;35568;48.104;11.782;2024-03-02T01:32:42;94311.93;;;6.41;54.80
48156;BME280;35568;48.104;11.782;2024-03-02T01:35:09;94311.68;;;6.57;54.71
48156;BME280;35568;48.104;11.782;2024-03-02T01:37:35;94310.88;;;6.57;54.66
48156;BME280;35568;48.104;11.782;2024-03-02T01:40:03;94312.92;;;6.64;54.51
48156;BME280;35568;48.104;11.782;2024-03-02T01:42:30;94313.32;;;6.65;54.56
48156;BME280;35568;48.104;11.782;2024-03-02T01:44:57;94314.96;;;6.57;54.59
48156;BME280;35568;48.104;11.782;2024-03-02T01:47:24;94315.39;;;6.83;54.48
48156;BME280;35568;48.104;11.782;2024-03-02T01:49:51;94317.56;;;6.77;54.08
48156;BME280;35568;48.104;11.782;2024-03-02T01:52:18;94316.41;;;6.76;54.09
48156;BME280;35568;48.104;11.782;2024-03-02T01:54:45;94315.99;;;6.92;53.89
48156;BME280;35568;48.104;11.782;2024-03-02T01:57:12;94315.06;;;6.86;53.78
48156;BME280;35568;48.104;11.782;2024-03-02T01:59:39;94313.72;;;7.13;53.86
48156;BME280;35568;48.104;11.782;2024-03-02T02:02:06;94311.77;;;7.03;53.71
48156;BME280;35568;48.104;11.782;2024-03-02T02:04:33;94313.22;;;7.13;53.34
48156;BME280;35568;48.104;11.782;2024-03-02T02:07:01;94313.22;;;6.94;53.47
48156;BME280;35568;48.104;11.782;2024-03-02T02:09:28;94308.50;;;7.27;53.53
48156;BME280;35568;48.104;11.782;2024-03-02T02:11:55;94306.57;;;7.14;53.46
48156;BME280;35568;48.104;11.782;2024-03-02T02:14:22;94305.92;;;7.16;53.38
48156;BME280;35568;48.104;11.782;2024-03-02T02:16:49;94302.57;;;7.23;53.23
48156;BME280;35568;48.104;11.782;2024-03-02T02:19:16;94298.67;;;7.22;53.20
48156;BME280;35568;48.104;11.782;2024-03-02T02:21:43;94297.03;;;7.22;53.18
48156;BME280;35568;48.104;11.782;2024-03-02T02:24:10;94291.94;;;7.25;53.12
48156;BME280;35568;48.104;11.782;2024-03-02T02:26:37;94287.74;;;7.28;52.93
48156;BME280;35568;48.104;11.782;2024-03-02T02:29:04;94286.88;;;7.46;53.10
48156;BME280;35568;48.104;11.782;2024-03-02T02:31:37;94284.54;;;7.22;53.02
48156;BME280;35568;48.104;11.782;2024-03-02T02:34:04;94282.76;;;7.07;53.29
48156;BME280;35568;48.104;11.782;2024-03-02T02:36:31;94281.38;;;7.05;53.20
48156;BME280;35568;48.104;11.782;2024-03-02T02:39:02;94279.22;;;7.22;53.26
48156;BME280;35568;48.104;11.782;2024-03-02T02:41:30;94277.20;;;7.43;53.48
48156;BME280;35568;48.104;11.782;2024-03-02T02:43:57;94277.08;;;6.81;53.71
48156;BME280;35568;48.104;11.782;2024-03-02T02:46:24;94278.57;;;6.74;53.92
48156;BME280;35568;48.104;11.782;2024-03-02T02:48:51;94274.50;;;7.28;53.76
48156;BME280;35568;48.104;11.782;2024-03-02T02:51:18;94271.49;;;7.13;53.48
48156;BME280;35568;48.104;11.782;2024-03-02T02:53:44;94269.68;;;6.93;53.62
48156;BME280;35568;48.104;11.782;2024-03-02T02:56:11;94269.18;;;7.27;53.33
48156;BME280;35568;48.104;11.782;2024-03-02T02:58:39;94268.85;;;6.94;53.36
48156;BME280;35568;48.104;11.782;2024-03-02T03:01:07;94269.64;;;6.97;53.42
48156;BME280;35568;48.104;11.782;2024-03-02T03:03:34;94268.19;;;6.85;53.65
48156;BME280;35568;48.104;11.782;2024-03-02T03:06:01;94261.75;;;6.97;53.72
48156;BME280;35568;48.104;11.782;2024-03-02T03:08:28;94262.52;;;6.93;54.01
48156;BME280;35568;48.104;11.782;2024-03-02T03:10:55;94263.10;;;6.65;53.92
48156;BME280;35568;48.104;11.782;2024-03-02T03:13:22;94262.90;;;6.64;54.26
48156;BME280;35568;48.104;11.782;2024-03-02T03:15:49;94265.99;;;6.81;53.93
48156;BME280;35568;48.104;11.782;2024-03-02T03:18:16;94271.45;;;6.65;54.21
48156;BME280;35568;48.104;11.782;2024-03-02T03:20:42;94268.73;;;6.84;54.04
48156;BME280;35568;48.104;11.782;2024-03-02T03:23:09;94268.35;;;7.21;53.82
48156;BME280;35568;48.104;11.782;2024-03-02T03:25:36;94271.55;;;7.31;53.57
48156;BME280;35568;48.104;11.782;2024-03-02T03:28:04;94272.46;;;7.05;53.60
48156;BME280;35568;48.104;11.782;2024-03-02T03:30:30;94275.79;;;7.34;53.49
48156;BME280;35568;48.104;11.782;2024-03-02T03:32:57;94279.25;;;7.13;53.34
48156;BME280;35568;48.104;11.782;2024-03-02T03:35:24;94283.36;;;7.37;53.32
48156;BME280;35568;48.104;11.782;2024-03-02T03:37:51;94284.89;;;7.35;53.26
48156;BME280;35568;48.104;11.782;2024-03-02T03:40:18;94284.76;;;7.07;53.42
48156;BME280;35568;48.104;11.782;2024-03-02T03:42:45;94287.88;;;7.43;53.23
48156;BME280;35568;48.104;11.782;2024-03-02T03:45:12;94290.77;;;7.26;53.22
48156;BME280;35568;48.104;11.782;2024-03-02T03:47:38;94295.34;;;7.32;53.07
48156;BME280;35568;48.104;11.782;2024-03-02T03:50:07;94296.00;;;7.31;53.07
48156;BME280;35568;48.104;11.782;2024-03-02T03:52:34;94295.05;;;7.25;53.12
48156;BME280;35568;48.104;11.782;2024-03-02T03:55:01;94295.14;;;7.14;53.29
48156;BME280;35568;48.104;11.782;2024-03-02T03:57:28;94296.77;;;7.07;53.01
48156;BME280;35568;48.104;11.782;2024-03-02T03:59:55;94297.65;;;7.06;52.93
48156;BME280;35568;48.104;11.782;2024-03-02T04:03:02;94299.34;;;7.04;51.76
48156;BME280;35568;48.104;11.782;2024-03-02T04:05:29;94299.93;;;7.80;51.15
48156;BME280;35568;48.104;11.782;2024-03-02T04:07:56;94303.24;;;7.94;51.70
48156;BME280;35568;48.104;11.782;2024-03-02T04:10:23;94301.77;;;7.68;52.16
48156;BME280;35568;48.104;11.782;2024-03-02T04:12:50;94301.74;;;7.55;52.42
48156;BME280;35568;48.104;11.782;2024-03-02T04:15:17;94302.37;;;7.47;52.53
48156;BME280;35568;48.104;11.782;2024-03-02T04:17:43;94304.25;;;7.36;52.77
48156;BME280;35568;48.104;11.782;2024-03-02T04:20:11;94307.76;;;7.21;53.00
48156;BME280;35568;48.104;11.782;2024-03-02T04:22:38;94310.05;;;7.11;53.21
48156;BME280;35568;48.104;11.782;2024-03-02T04:25:06;94312.17;;;7.19;53.22
48156;BME280;35568;48.104;11.782;2024-03-02T04:27:33;94311.83;;;7.28;52.93
48156;BME280;35568;48.104;11.782;2024-03-02T04:30:00;94311.16;;;7.23;52.91
48156;BME280;35568;48.104;11.782;2024-03-02T04:32:27;94310.74;;;7.29;52.97
48156;BME280;35568;48.104;11.782;2024-03-02T04:34:55;94308.41;;;7.28;53.10
48156;BME280;35568;48.104;11.782;2024-03-02T04:37:22;94305.35;;;7.37;52.91
48156;BME280;35568;48.104;11.782;2024-03-02T04:39:49;94304.86;;;7.26;52.92
48156;BME280;35568;48.104;11.782;2024-03-02T04:42:16;94304.38;;;7.30;52.92
48156;BME280;35568;48.104;11.782;2024-03-02T04:44:43;94301.07;;;7.26;53.03
48156;BME280;35568;48.104;11.782;2024-03-02T04:47:10;94302.77;;;7.22;53.05
48156;BME280;35568;48.104;11.782;2024-03-02T04:49:37;94303.52;;;7.20;53.15
48156;BME280;35568;48.104;11.782;2024-03-02T04:52:04;94305.30;;;7.25;53.20
48156;BME280;35568;48.104;11.782;2024-03-02T04:54:32;94309.14;;;7.22;53.28
48156;BME280;35568;48.104;11.782;2024-03-02T04:56:58;94308.92;;;7.25;53.18
48156;BME280;35568;48.104;11.782;2024-03-02T04:59:25;94311.85;;;7.24;53.27
48156;BME280;35568;48.104;11.782;2024-03-02T05:01:52;94316.11;;;7.30;53.14
48156;BME280;35568;48.104;11.782;2024-03-02T05:04:18;94324.19;;;7.06;53.52
48156;BME280;35568;48.104;11.782;2024-03-02T05:06:45;94329.10;;;7.02;53.93
48156;BME280;35568;48.104;11.782;2024-03-02T05:09:12;94333.15;;;6.92;54.26
48156;BME280;35568;48.104;11.782;2024-03-02T05:11:39;94337.89;;;6.93;54.32
48156;BME280;35568;48.104;11.782;2024-03-02T05:14:06;94340.55;;;6.62;54.29
48156;BME280;35568;48.104;11.782;2024-03-02T05:16:34;94347.26;;;6.94;54.65
48156;BME280;35568;48.104;11.782;2024-03-02T05:19:01;94351.21;;;6.56;55.06
48156;BME280;35568;48.104;11.782;2024-03-02T05:21:27;94357.31;;;6.80;54.82
48156;BME280;35568;48.104;11.782;2024-03-02T05:23:54;94357.49;;;6.91;54.65
48156;BME280;35568;48.104;11.782;2024-03-02T05:26:21;94356.96;;;6.99;54.67
48156;BME280;35568;48.104;11.782;2024-03-02T05:28:48;94356.66;;;6.92;54.67
48156;BME280;35568;48.104;11.782;2024-03-02T05:31:15;94352.96;;;6.85;54.60
48156;BME280;35568;48.104;11.782;2024-03-02T05:33:43;94353.05;;;7.15;54.40
48156;BME280;35568;48.104;11.782;2024-03-02T05:36:10;94351.64;;;7.09;54.51
48156;BME280;35568;48.104;11.782;2024-03-02T05:38:37;94346.54;;;6.85;54.34
48156;BME280;35568;48.104;11.782;2024-03-02T05:41:04;94345.15;;;6.84;54.50
48156;BME280;35568;48.104;11.782;2024-03-02T05:43:31;94347.93;;;7.14;54.44
48156;BME280;35568;48.104;11.782;2024-03-02T05:45:59;94349.82;;;7.16;54.20
48156;BME280;35568;48.104;11.782;2024-03-02T05:48:25;94353.54;;;6.81;54.87
48156;BME280;35568;48.104;11.782;2024-03-02T05:50:53;94350.83;;;6.80;54.64
48156;BME280;35568;48.104;11.782;2024-03-02T05:53:20;94355.63;;;6.63;54.67
48156;BME280;35568;48.104;11.782;2024-03-02T05:55:46;94361.54;;;6.99;54.67
48156;BME280;35568;48.104;11.782;2024-03-02T05:58:13;94364.84;;;6.77;54.64
48156;BME280;35568;48.104;11.782;2024-03-02T06:00:40;94364.32;;;6.98;54.75
48156;BME280;35568;48.104;11.782;2024-03-02T06:03:07;94362.30;;;7.04;54.78
48156;BME280;35568;48.104;11.782;2024-03-02T06:05:33;94359.48;;;7.05;54.67
48156;BME280;35568;48.104;11.782;2024-03-02T06:08:00;94358.19;;;6.99;54.63
48156;BME280;35568;48.104;11.782;2024-03-02T06:10:26;94356.69;;;6.82;54.44
48156;BME280;35568;48.104;11.782;2024-03-02T06:12:53;94354.20;;;7.00;54.35
48156;BME280;35568;48.104;11.782;2024-03-02T06:15:20;94357.40;;;6.98;54.37
48156;BME280;35568;48.104;11.782;2024-03-02T06:17:47;94362.42;;;6.78;54.65
48156;BME280;35568;48.104;11.782;2024-03-02T06:20:14;94361.83;;;7.05;54.74
48156;BME280;35568;48.104;11.782;2024-03-02T06:22:41;94357.57;;;7.17;54.76
48156;BME280;35568;48.104;11.782;2024-03-02T06:25:08;94364.05;;;6.91;54.62
48156;BME280;35568;48.104;11.782;2024-03-02T06:27:35;94363.51;;;7.14;54.73
48156;BME280;35568;48.104;11.782;2024-03-02T06:30:03;94366.74;;;7.11;54.50
48156;BME280;35568;48.104;11.782;2024-03-02T06:32:30;94370.41;;;6.99;54.48
48156;BME280;35568;48.104;11.782;2024-03-02T06:34:56;94370.09;;;7.28;54.15
48156;BME280;35568;48.104;11.782;2024-03-02T06:37:23;94369.00;;;6.93;54.42
48156;BME280;35568;48.104;11.782;2024-03-02T06:39:50;94366.86;;;7.06;54.32
48156;BME280;35568;48.104;11.782;2024-03-02T06:42:17;94364.71;;;7.03;54.49
48156;BME280;35568;48.104;11.782;2024-03-02T06:44:44;94362.40;;;6.91;54.57
48156;BME280;35568;48.104;11.782;2024-03-02T06:47:11;94362.86;;;7.15;54.47
48156;BME280;35568;48.104;11.782;2024-03-02T06:49:37;94363.25;;;7.21;53.98
48156;BME280;35568;48.104;11.782;2024-03-02T06:52:05;94360.94;;;6.42;53.84
48156;BME280;35568;48.104;11.782;2024-03-02T06:54:32;94359.81;;;7.82;53.18
48156;BME280;35568;48.104;11.782;2024-03-02T06:56:59;94355.51;;;7.75;53.25
48156;BME280;35568;48.104;11.782;2024-03-02T06:59:26;94356.96;;;7.60;53.51
48156;BME280;35568;48.104;11.782;2024-03-02T07:01:53;94356.61;;;7.62;53.58
48156;BME280;35568;48.104;11.782;2024-03-02T07:04:19;94355.54;;;7.53;53.58
48156;BME280;35568;48.104;11.782;2024-03-02T07:06:46;94354.30;;;7.83;53.36
48156;BME280;35568;48.104;11.782;2024-03-02T07:09:12;94353.89;;;7.47;53.39
48156;BME280;35568;48.104;11.782;2024-03-02T07:11:39;94357.18;;;7.59;53.76
48156;BME280;35568;48.104;11.782;2024-03-02T07:14:06;94355.68;;;7.16;53.95
48156;BME280;35568;48.104;11.782;2024-03-02T07:16:33;94357.97;;;7.74;53.84
48156;BME280;35568;48.104;11.782;2024-03-02T07:19:00;94363.54;;;7.77;53.56
48156;BME280;35568;48.104;11.782;2024-03-02T07:21:27;94365.51;;;7.96;53.12
48156;BME280;35568;48.104;11.782;2024-03-02T07:23:54;94364.85;;;7.85;53.08
48156;BME280;35568;48.104;11.782;2024-03-02T07:26:21;94367.86;;;8.03;53.09
48156;BME280;35568;48.104;11.782;2024-03-02T07:28:48;94364.16;;;8.48;52.45
48156;BME280;35568;48.104;11.782;2024-03-02T07:31:16;94363.58;;;8.21;52.28
48156;BME280;35568;48.104;11.782;2024-03-02T07:33:44;94364.86;;;8.28;52.13
48156;BME280;35568;48.104;11.782;2024-03-02T07:36:11;94364.83;;;8.14;52.22
48156;BME280;35568;48.104;11.782;2024-03-02T07:38:38;94366.46;;;8.15;52.62
48156;BME280;35568;48.104;11.782;2024-03-02T07:41:05;94365.59;;;8.27;52.21
48156;BME280;35568;48.104;11.782;2024-03-02T07:43:32;94364.92;;;8.37;52.22
48156;BME280;35568;48.104;11.782;2024-03-02T07:46:00;94364.46;;;8.36;52.47
48156;BME280;35568;48.104;11.782;2024-03-02T07:48:27;94370.21;;;8.26;52.60
48156;BME280;35568;48.104;11.782;2024-03-02T07:50:53;94374.59;;;8.63;52.12
48156;BME280;35568;48.104;11.782;2024-03-02T07:53:20;94374.47;;;8.86;51.64
48156;BME280;35568;48.104;11.782;2024-03-02T07:55:47;94378.06;;;9.14;51.29
48156;BME280;35568;48.104;11.782;2024-03-02T07:58:14;94378.65;;;9.34;51.69
48156;BME280;35568;48.104;11.782;2024-03-02T08:00:42;94383.98;;;9.72;51.37
48156;BME280;35568;48.104;11.782;2024-03-02T08:03:09;94385.67;;;9.47;50.52
48156;BME280;35568;48.104;11.782;2024-03-02T08:05:36;94389.71;;;9.77;50.36
48156;BME280;35568;48.104;11.782;2024-03-02T08:08:04;94395.18;;;10.14;50.57
48156;BME280;35568;48.104;11.782;2024-03-02T08:10:31;94397.81;;;10.33;48.55
48156;BME280;35568;48.104;11.782;2024-03-02T08:12:58;94399.94;;;10.21;48.55
48156;BME280;35568;48.104;11.782;2024-03-02T08:15:24;94400.85;;;9.96;48.89
48156;BME280;35568;48.104;11.782;2024-03-02T08:17:51;94400.82;;;9.82;49.37
48156;BME280;35568;48.104;11.782;2024-03-02T08:20:19;94400.96;;;9.76;49.71
48156;BME280;35568;48.104;11.782;2024-03-02T08:22:46;94399.09;;;9.70;49.12
48156;BME280;35568;48.104;11.782;2024-03-02T08:25:14;94401.41;;;9.84;49.82
48156;BME280;35568;48.104;11.782;2024-03-02T08:27:41;94404.75;;;10.47;50.07
48156;BME280;35568;48.104;11.782;2024-03-02T08:30:09;94407.42;;;10.35;49.06
48156;BME280;35568;48.104;11.782;2024-03-02T08:32:36;94409.59;;;10.11;49.07
48156;BME280;35568;48.104;11.782;2024-03-02T08:35:04;94412.38;;;10.19;48.90
48156;BME280;35568;48.104;11.782;2024-03-02T08:37:32;94413.47;;;10.06;49.10
48156;BME280;35568;48.104;11.782;2024-03-02T08:39:59;94410.50;;;10.35;48.77
48156;BME280;35568;48.104;11.782;2024-03-02T08:42:26;94405.79;;;10.19;48.72
48156;BME280;35568;48.104;11.782;2024-03-02T08:44:53;94406.75;;;10.46;48.42
48156;BME280;35568;48.104;11.782;2024-03-02T08:47:21;94411.77;;;10.33;48.78
48156;BME280;35568;48.104;11.782;2024-03-02T08:49:52;94414.37;;;10.22;49.09
48156;BME280;35568;48.104;11.782;2024-03-02T08:52:19;94415.81;;;10.29;49.18
48156;BME280;35568;48.104;11.782;2024-03-02T08:54:46;94411.82;;;10.61;48.84
48156;BME280;35568;48.104;11.782;2024-03-02T08:57:13;94412.64;;;10.44;47.90
48156;BME280;35568;48.104;11.782;2024-03-02T08:59:40;94409.95;;;10.40;48.74
48156;BME280;35568;48.104;11.782;2024-03-02T09:02:07;94407.81;;;10.56;48.43
48156;BME280;35568;48.104;11.782;2024-03-02T09:04:34;94410.95;;;11.37;47.51
48156;BME280;35568;48.104;11.782;2024-03-02T09:07:01;94407.73;;;11.43;46.64
48156;BME280;35568;48.104;11.782;2024-03-02T09:09:28;94408.71;;;11.51;46.15
48156;BME280;35568;48.104;11.782;2024-03-02T09:11:56;94409.70;;;11.76;45.32
48156;BME280;35568;48.104;11.782;2024-03-02T09:14:23;94406.39;;;12.43;44.60
48156;BME280;35568;48.104;11.782;2024-03-02T09:16:50;94407.21;;;12.60;44.83
48156;BME280;35568;48.104;11.782;2024-03-02T09:19:17;94405.91;;;13.26;43.45
48156;BME280;35568;48.104;11.782;2024-03-02T09:21:44;94403.28;;;12.61;42.48
48156;BME280;35568;48.104;11.782;2024-03-02T09:24:11;94404.04;;;13.33;42.58
48156;BME280;35568;48.104;11.782;2024-03-02T09:26:38;94405.83;;;13.41;41.19
48156;BME280;35568;48.104;11.782;2024-03-02T09:29:05;94404.41;;;14.09;41.23
48156;BME280;35568;48.104;11.782;2024-03-02T09:31:32;94403.96;;;14.30;40.65
48156;BME280;35568;48.104;11.782;2024-03-02T09:33:59;94401.69;;;15.27;39.68
48156;BME280;35568;48.104;11.782;2024-03-02T09:36:26;94401.51;;;14.31;39.17
48156;BME280;35568;48.104;11.782;2024-03-02T09:38:53;94398.74;;;13.70;40.32
48156;BME280;35568;48.104;11.782;2024-03-02T09:41:20;94392.74;;;14.50;40.27
48156;BME280;35568;48.104;11.782;2024-03-02T09:43:48;94395.06;;;15.21;39.32
48156;BME280;35568;48.104;11.782;2024-03-02T09:46:16;94389.62;;;15.35;38.30
48156;BME280;35568;48.104;11.782;2024-03-02T09:48:44;94389.83;;;15.69;37.45
48156;BME280;35568;48.104;11.782;2024-03-02T09:51:11;94385.74;;;16.34;37.06
48156;BME280;35568;48.104;11.782;2024-03-02T09:53:39;94380.53;;;16.88;36.58
48156;BME280;35568;48.104;11.782;2024-03-02T09:56:06;94377.73;;;16.98;35.95
48156;BME280;35568;48.104;11.782;2024-03-02T09:58:33;94378.57;;;16.41;35.78
48156;BME280;35568;48.104;11.782;2024-03-02T10:01:00;94380.03;;;16.22;36.49
48156;BME280;35568;48.104;11.782;2024-03-02T10:03:27;94382.84;;;16.68;36.17
48156;BME280;35568;48.104;11.782;2024-03-02T10:05:55;94379.51;;;16.94;35.43
48156;BME280;35568;48.104;11.782;2024-03-02T10:08:22;94377.86;;;16.04;35.47
48156;BME280;35568;48.104;11.782;2024-03-02T10:10:49;94374.58;;;16.74;35.11
48156;BME280;35568;48.104;11.782;2024-03-02T10:13:16;94372.43;;;16.78;35.57
48156;BME280;35568;48.104;11.782;2024-03-02T10:15:43;94371.19;;;17.00;35.35
48156;BME280;35568;48.104;11.782;2024-03-02T10:18:10;94370.97;;;17.47;34.53
48156;BME280;35568;48.104;11.782;2024-03-02T10:20:38;94364.93;;;17.96;33.94
48156;BME280;35568;48.104;11.782;2024-03-02T10:23:14;94364.89;;;17.59;33.10
48156;BME280;35568;48.104;11.782;2024-03-02T10:25:41;94365.60;;;17.87;33.37
48156;BME280;35568;48.104;11.782;2024-03-02T10:28:09;94363.11;;;18.15;32.86
48156;BME280;35568;48.104;11.782;2024-03-02T10:30:36;94366.27;;;18.38;31.79
48156;BME280;35568;48.104;11.782;2024-03-02T10:33:05;94363.67;;;19.08;30.58
48156;BME280;35568;48.104;11.782;2024-03-02T10:35:33;94361.97;;;19.41;31.47
48156;BME280;35568;48.104;11.782;2024-03-02T10:38:00;94359.95;;;19.33;30.26
48156;BME280;35568;48.104;11.782;2024-03-02T10:40:27;94356.34;;;19.20;31.43
48156;BME280;35568;48.104;11.782;2024-03-02T10:42:55;94353.59;;;18.73;31.46
48156;BME280;35568;48.104;11.782;2024-03-02T10:45:23;94352.14;;;19.46;30.98
48156;BME280;35568;48.104;11.782;2024-03-02T10:47:50;94343.07;;;18.90;31.21
48156;BME280;35568;48.104;11.782;2024-03-02T10:51:57;94337.78;;;19.59;31.40
48156;BME280;35568;48.104;11.782;2024-03-02T10:54:25;94325.62;;;20.15;30.06
48156;BME280;35568;48.104;11.782;2024-03-02T10:56:53;94326.70;;;20.30;30.01
48156;BME280;35568;48.104;11.782;2024-03-02T10:59:27;94326.15;;;20.45;29.52
48156;BME280;35568;48.104;11.782;2024-03-02T11:01:56;94325.57;;;20.19;29.46
48156;BME280;35568;48.104;11.782;2024-03-02T11:04:24;94318.73;;;20.08;29.78
48156;BME280;35568;48.104;11.782;2024-03-02T11:06:54;94311.75;;;20.63;29.35
48156;BME280;35568;48.104;11.782;2024-03-02T11:09:26;94304.73;;;20.56;29.59
48156;BME280;35568;48.104;11.782;2024-03-02T11:12:00;94304.93;;;20.28;29.31
48156;BME280;35568;48.104;11.782;2024-03-02T11:14:30;94298.85;;;20.40;28.91
48156;BME280;35568;48.104;11.782;2024-03-02T11:16:59;94294.76;;;20.49;28.40
48156;BME280;35568;48.104;11.782;2024-03-02T11:19:27;94285.79;;;20.38;27.96
48156;BME280;35568;48.104;11.782;2024-03-02T11:21:54;94288.88;;;20.26;28.48
48156;BME280;35568;48.104;11.782;2024-03-02T11:24:38;94287.51;;;20.04;28.53
48156;BME280;35568;48.104;11.782;2024-03-02T11:27:06;94283.60;;;20.93;28.06
48156;BME280;35568;48.104;11.782;2024-03-02T11:29:49;94278.58;;;20.96;27.27
48156;BME280;35568;48.104;11.782;2024-03-02T11:32:17;94276.31;;;21.04;27.48
48156;BME280;35568;48.104;11.782;2024-03-02T11:34:46;94270.96;;;20.83;27.32
48156;BME280;35568;48.104;11.782;2024-03-02T11:37:15;94267.64;;;20.65;28.36
48156;BME280;35568;48.104;11.782;2024-03-02T11:39:44;94265.94;;;21.36;27.89
48156;BME280;35568;48.104;11.782;2024-03-02T11:42:12;94264.14;;;21.39;27.64
48156;BME280;35568;48.104;11.782;2024-03-02T11:44:39;94262.16;;;20.43;27.94
48156;BME280;35568;48.104;11.782;2024-03-02T11:47:10;94258.65;;;20.37;28.03
48156;BME280;35568;48.104;11.782;2024-03-02T11:49:38;94256.41;;;19.91;28.52
48156;BME280;35568;48.104;11.782;2024-03-02T11:52:07;94251.91;;;19.85;28.68
48156;BME280;35568;48.104;11.782;2024-03-02T11:54:35;94245.85;;;20.04;28.76
48156;BME280;35568;48.104;11.782;2024-03-02T11:57:03;94244.98;;;19.51;29.49
48156;BME280;35568;48.104;11.782;2024-03-02T11:59:30;94240.43;;;19.47;30.09
48156;BME280;35568;48.104;11.782;2024-03-02T12:01:58;94238.86;;;18.88;31.29
48156;BME280;35568;48.104;11.782;2024-03-02T12:04:26;94233.54;;;18.69;31.85
48156;BME280;35568;48.104;11.782;2024-03-02T12:06:55;94231.35;;;19.07;31.60
48156;BME280;35568;48.104;11.782;2024-03-02T12:09:22;94230.43;;;18.42;31.81
48156;BME280;35568;48.104;11.782;2024-03-02T12:12:02;94229.07;;;18.98;30.90
48156;BME280;35568;48.104;11.782;2024-03-02T12:14:29;94226.06;;;19.41;29.80
48156;BME280;35568;48.104;11.782;2024-03-02T12:16:56;94224.65;;;20.11;28.83
48156;BME280;35568;48.104;11.782;2024-03-02T12:19:22;94224.10;;;20.05;28.16
48156;BME280;35568;48.104;11.782;2024-03-02T12:21:49;94226.46;;;21.09;27.91
48156;BME280;35568;48.104;11.782;2024-03-02T12:24:17;94224.05;;;21.42;27.42
48156;BME280;35568;48.104;11.782;2024-03-02T12:26:45;94220.29;;;21.18;27.41
48156;BME280;35568;48.104;11.782;2024-03-02T12:29:12;94208.80;;;21.55;26.66
48156;BME280;35568;48.104;11.782;2024-03-02T12:31:40;94204.73;;;21.60;26.79
48156;BME280;35568;48.104;11.782;2024-03-02T12:34:07;94204.76;;;21.78;26.61
48156;BME280;35568;48.104;11.782;2024-03-02T12:36:37;94200.43;;;21.75;26.71
48156;BME280;35568;48.104;11.782;2024-03-02T12:39:05;94200.81;;;20.79;27.36
48156;BME280;35568;48.104;11.782;2024-03-02T12:41:31;94199.07;;;20.52;27.80
48156;BME280;35568;48.104;11.782;2024-03-02T12:43:59;94189.50;;;21.30;27.64
48156;BME280;35568;48.104;11.782;2024-03-02T12:46:25;94188.52;;;20.56;27.84
48156;BME280;35568;48.104;11.782;2024-03-02T12:48:52;94186.55;;;20.70;28.15
48156;BME280;35568;48.104;11.782;2024-03-02T12:51:20;94182.36;;;21.03;27.60
48156;BME280;35568;48.104;11.782;2024-03-02T12:53:53;94178.31;;;21.07;27.19
48156;BME280;35568;48.104;11.782;2024-03-02T12:56:20;94175.10;;;20.94;27.27
48156;BME280;35568;48.104;11.782;2024-03-02T12:58:52;94170.95;;;20.40;27.59
48156;BME280;35568;48.104;11.782;2024-03-02T13:01:19;94167.79;;;20.52;27.80